sensor_id;sensor_type;location;lat;lon;timestamp;P1;durP1;ratioP1;P2;durP2;ratioP2
29712;SDS011;16623;53.632;10.016;2023-04-05T00:01:33;15.95;;;6.97;;
29712;SDS011;16623;53.632;10.016;2023-04-05T00:03:59;17.30;;;7.15;;
29712;SDS011;16623;53.632;10.016;2023-04-05T00:06:27;13.25;;;6.35;;
29712;SDS011;16623;53.632;10.016;2023-04-05T00:08:57;12.60;;;6.72;;
29712;SDS011;16623;53.632;10.016;2023-04-05T00:11:23;10.57;;;5.55;;
29712;SDS011;16623;53.632;10.016;2023-04-05T00:13:50;14.88;;;7.03;;
29712;SDS011;16623;53.632;10.016;2023-04-05T00:16:16;12.98;;;6.63;;
29712;SDS011;16623;53.632;10.016;2023-04-05T00:18:42;16.95;;;6.93;;
29712;SDS011;16623;53.632;10.016;2023-04-05T00:21:13;13.32;;;5.78;;
29712;SDS011;16623;53.632;10.016;2023-04-05T00:23:40;13.80;;;6.28;;
29712;SDS011;16623;53.632;10.016;2023-04-05T00:26:10;12.77;;;6.30;;
29712;SDS011;16623;53.632;10.016;2023-04-05T00:28:36;12.68;;;5.65;;
29712;SDS011;16623;53.632;10.016;2023-04-05T00:31:02;14.05;;;5.85;;
29712;SDS011;16623;53.632;10.016;2023-04-05T00:33:28;13.07;;;7.13;;
29712;SDS011;16623;53.632;10.016;2023-04-05T00:35:54;14.95;;;6.50;;
29712;SDS011;16623;53.632;10.016;2023-04-05T00:38:20;11.35;;;5.72;;
29712;SDS011;16623;53.632;10.016;2023-04-05T00:40:46;14.30;;;6.03;;
29712;SDS011;16623;53.632;10.016;2023-04-05T00:43:11;17.77;;;6.43;;
29712;SDS011;16623;53.632;10.016;2023-04-05T00:45:37;11.45;;;6.15;;
29712;SDS011;16623;53.632;10.016;2023-04-05T00:48:02;12.70;;;6.88;;
29712;SDS011;16623;53.632;10.016;2023-04-05T00:50:29;14.50;;;6.75;;
29712;SDS011;16623;53.632;10.016;2023-04-05T00:52:55;18.13;;;7.63;;
29712;SDS011;16623;53.632;10.016;2023-04-05T00:55:22;11.50;;;5.72;;
29712;SDS011;16623;53.632;10.016;2023-04-05T00:57:49;14.43;;;7.03;;
29712;SDS011;16623;53.632;10.016;2023-04-05T01:00:15;11.45;;;7.10;;
29712;SDS011;16623;53.632;10.016;2023-04-05T01:05:18;12.13;;;6.60;;
29712;SDS011;16623;53.632;10.016;2023-04-05T01:07:58;10.57;;;6.93;;
29712;SDS011;16623;53.632;10.016;2023-04-05T01:10:47;15.65;;;8.68;;
29712;SDS011;16623;53.632;10.016;2023-04-05T01:13:18;13.10;;;6.72;;
29712;SDS011;16623;53.632;10.016;2023-04-05T01:15:44;15.38;;;6.88;;
29712;SDS011;16623;53.632;10.016;2023-04-05T01:18:10;16.50;;;6.93;;
29712;SDS011;16623;53.632;10.016;2023-04-05T01:20:39;18.30;;;6.95;;
29712;SDS011;16623;53.632;10.016;2023-04-05T01:26:19;13.35;;;6.85;;
29712;SDS011;16623;53.632;10.016;2023-04-05T01:31:59;13.32;;;6.63;;
29712;SDS011;16623;53.632;10.016;2023-04-05T01:37:33;11.55;;;6.57;;
29712;SDS011;16623;53.632;10.016;2023-04-05T01:40:01;15.52;;;7.13;;
29712;SDS011;16623;53.632;10.016;2023-04-05T01:42:28;23.08;;;10.88;;
29712;SDS011;16623;53.632;10.016;2023-04-05T01:44:55;16.77;;;6.90;;
29712;SDS011;16623;53.632;10.016;2023-04-05T01:47:21;13.43;;;6.95;;
29712;SDS011;16623;53.632;10.016;2023-04-05T01:49:47;12.10;;;6.70;;
29712;SDS011;16623;53.632;10.016;2023-04-05T01:52:12;13.55;;;6.90;;
29712;SDS011;16623;53.632;10.016;2023-04-05T01:54:38;12.23;;;6.50;;
29712;SDS011;16623;53.632;10.016;2023-04-05T01:57:04;15.55;;;7.00;;
29712;SDS011;16623;53.632;10.016;2023-04-05T01:59:29;14.57;;;6.53;;
29712;SDS011;16623;53.632;10.016;2023-04-05T02:01:55;14.27;;;7.10;;
29712;SDS011;16623;53.632;10.016;2023-04-05T02:04:21;18.45;;;7.38;;
29712;SDS011;16623;53.632;10.016;2023-04-05T02:06:46;13.82;;;6.40;;
29712;SDS011;16623;53.632;10.016;2023-04-05T02:09:13;11.63;;;7.13;;
29712;SDS011;16623;53.632;10.016;2023-04-05T02:11:40;13.57;;;6.80;;
29712;SDS011;16623;53.632;10.016;2023-04-05T02:14:05;12.73;;;6.70;;
29712;SDS011;16623;53.632;10.016;2023-04-05T02:16:30;14.15;;;8.30;;
29712;SDS011;16623;53.632;10.016;2023-04-05T02:19:06;16.67;;;7.45;;
29712;SDS011;16623;53.632;10.016;2023-04-05T02:21:31;19.77;;;7.38;;
29712;SDS011;16623;53.632;10.016;2023-04-05T02:23:57;13.40;;;6.57;;
29712;SDS011;16623;53.632;10.016;2023-04-05T02:26:22;14.93;;;7.25;;
29712;SDS011;16623;53.632;10.016;2023-04-05T02:28:48;15.32;;;7.20;;
29712;SDS011;16623;53.632;10.016;2023-04-05T02:31:13;11.48;;;6.57;;
29712;SDS011;16623;53.632;10.016;2023-04-05T02:33:39;10.85;;;6.72;;
29712;SDS011;16623;53.632;10.016;2023-04-05T02:36:05;14.05;;;6.30;;
29712;SDS011;16623;53.632;10.016;2023-04-05T02:38:33;12.50;;;6.22;;
29712;SDS011;16623;53.632;10.016;2023-04-05T02:40:59;14.13;;;7.45;;
29712;SDS011;16623;53.632;10.016;2023-04-05T02:43:24;12.55;;;6.13;;
29712;SDS011;16623;53.632;10.016;2023-04-05T02:45:50;12.38;;;5.63;;
29712;SDS011;16623;53.632;10.016;2023-04-05T02:48:16;14.00;;;6.75;;
29712;SDS011;16623;53.632;10.016;2023-04-05T02:50:46;12.77;;;6.43;;
29712;SDS011;16623;53.632;10.016;2023-04-05T02:53:14;15.90;;;6.47;;
29712;SDS011;16623;53.632;10.016;2023-04-05T02:55:41;14.75;;;7.32;;
29712;SDS011;16623;53.632;10.016;2023-04-05T02:58:07;10.80;;;6.22;;
29712;SDS011;16623;53.632;10.016;2023-04-05T03:00:33;13.45;;;6.20;;
29712;SDS011;16623;53.632;10.016;2023-04-05T03:02:58;15.25;;;5.65;;
29712;SDS011;16623;53.632;10.016;2023-04-05T03:05:24;16.50;;;7.03;;
29712;SDS011;16623;53.632;10.016;2023-04-05T03:07:50;12.20;;;6.47;;
29712;SDS011;16623;53.632;10.016;2023-04-05T03:10:16;17.10;;;7.47;;
29712;SDS011;16623;53.632;10.016;2023-04-05T03:12:42;17.25;;;7.07;;
29712;SDS011;16623;53.632;10.016;2023-04-05T03:15:09;12.00;;;7.00;;
29712;SDS011;16623;53.632;10.016;2023-04-05T03:17:35;11.82;;;7.15;;
29712;SDS011;16623;53.632;10.016;2023-04-05T03:20:01;12.25;;;7.15;;
29712;SDS011;16623;53.632;10.016;2023-04-05T03:22:30;16.08;;;7.47;;
29712;SDS011;16623;53.632;10.016;2023-04-05T03:24:58;14.13;;;7.07;;
29712;SDS011;16623;53.632;10.016;2023-04-05T03:27:24;15.35;;;7.32;;
29712;SDS011;16623;53.632;10.016;2023-04-05T03:29:51;8.85;;;6.03;;
29712;SDS011;16623;53.632;10.016;2023-04-05T03:32:16;16.85;;;6.95;;
29712;SDS011;16623;53.632;10.016;2023-04-05T03:34:45;12.18;;;6.82;;
29712;SDS011;16623;53.632;10.016;2023-04-05T03:37:10;13.57;;;7.03;;
29712;SDS011;16623;53.632;10.016;2023-04-05T03:39:36;14.25;;;6.70;;
29712;SDS011;16623;53.632;10.016;2023-04-05T03:42:02;17.73;;;6.93;;
29712;SDS011;16623;53.632;10.016;2023-04-05T03:44:27;14.32;;;6.40;;
29712;SDS011;16623;53.632;10.016;2023-04-05T03:46:54;16.00;;;6.53;;
29712;SDS011;16623;53.632;10.016;2023-04-05T03:49:19;14.73;;;7.03;;
29712;SDS011;16623;53.632;10.016;2023-04-05T03:51:45;15.73;;;7.22;;
29712;SDS011;16623;53.632;10.016;2023-04-05T03:54:11;12.20;;;7.25;;
29712;SDS011;16623;53.632;10.016;2023-04-05T03:56:37;15.55;;;7.03;;
29712;SDS011;16623;53.632;10.016;2023-04-05T03:59:02;13.85;;;6.35;;
29712;SDS011;16623;53.632;10.016;2023-04-05T04:01:28;19.23;;;6.88;;
29712;SDS011;16623;53.632;10.016;2023-04-05T04:03:54;14.43;;;6.95;;
29712;SDS011;16623;53.632;10.016;2023-04-05T04:06:20;13.13;;;6.97;;
29712;SDS011;16623;53.632;10.016;2023-04-05T04:08:46;14.25;;;6.28;;
29712;SDS011;16623;53.632;10.016;2023-04-05T04:11:12;13.45;;;7.05;;
29712;SDS011;16623;53.632;10.016;2023-04-05T04:13:38;11.77;;;6.97;;
29712;SDS011;16623;53.632;10.016;2023-04-05T04:16:03;13.35;;;6.60;;
29712;SDS011;16623;53.632;10.016;2023-04-05T04:18:29;14.73;;;7.35;;
29712;SDS011;16623;53.632;10.016;2023-04-05T04:20:54;10.77;;;6.88;;
29712;SDS011;16623;53.632;10.016;2023-04-05T04:23:21;10.65;;;6.05;;
29712;SDS011;16623;53.632;10.016;2023-04-05T04:25:48;21.48;;;6.93;;
29712;SDS011;16623;53.632;10.016;2023-04-05T04:28:18;14.43;;;6.60;;
29712;SDS011;16623;53.632;10.016;2023-04-05T04:30:44;14.65;;;6.57;;
29712;SDS011;16623;53.632;10.016;2023-04-05T04:33:10;13.82;;;6.78;;
29712;SDS011;16623;53.632;10.016;2023-04-05T04:35:36;12.18;;;7.05;;
29712;SDS011;16623;53.632;10.016;2023-04-05T04:38:04;13.98;;;7.13;;
29712;SDS011;16623;53.632;10.016;2023-04-05T04:40:35;15.15;;;7.47;;
29712;SDS011;16623;53.632;10.016;2023-04-05T04:43:06;13.45;;;6.82;;
29712;SDS011;16623;53.632;10.016;2023-04-05T04:45:41;19.00;;;7.00;;
29712;SDS011;16623;53.632;10.016;2023-04-05T04:48:10;17.35;;;6.88;;
29712;SDS011;16623;53.632;10.016;2023-04-05T04:50:38;15.57;;;7.55;;
29712;SDS011;16623;53.632;10.016;2023-04-05T04:53:04;13.50;;;6.82;;
29712;SDS011;16623;53.632;10.016;2023-04-05T04:55:30;16.17;;;7.55;;
29712;SDS011;16623;53.632;10.016;2023-04-05T04:57:57;15.82;;;7.22;;
29712;SDS011;16623;53.632;10.016;2023-04-05T05:00:23;13.98;;;7.35;;
29712;SDS011;16623;53.632;10.016;2023-04-05T05:02:50;20.45;;;8.48;;
29712;SDS011;16623;53.632;10.016;2023-04-05T05:05:16;17.45;;;7.65;;
29712;SDS011;16623;53.632;10.016;2023-04-05T05:07:42;14.73;;;7.28;;
29712;SDS011;16623;53.632;10.016;2023-04-05T05:10:10;12.98;;;7.97;;
29712;SDS011;16623;53.632;10.016;2023-04-05T05:12:37;15.20;;;7.45;;
29712;SDS011;16623;53.632;10.016;2023-04-05T05:15:02;18.27;;;7.57;;
29712;SDS011;16623;53.632;10.016;2023-04-05T05:17:28;20.88;;;8.02;;
29712;SDS011;16623;53.632;10.016;2023-04-05T05:19:56;14.40;;;7.65;;
29712;SDS011;16623;53.632;10.016;2023-04-05T05:22:24;16.25;;;9.40;;
29712;SDS011;16623;53.632;10.016;2023-04-05T05:24:50;20.77;;;8.40;;
29712;SDS011;16623;53.632;10.016;2023-04-05T05:27:15;15.00;;;8.68;;
29712;SDS011;16623;53.632;10.016;2023-04-05T05:29:41;24.50;;;11.13;;
29712;SDS011;16623;53.632;10.016;2023-04-05T05:32:07;21.73;;;11.27;;
29712;SDS011;16623;53.632;10.016;2023-04-05T05:34:33;16.98;;;9.23;;
29712;SDS011;16623;53.632;10.016;2023-04-05T05:36:59;14.88;;;9.40;;
29712;SDS011;16623;53.632;10.016;2023-04-05T05:39:25;15.52;;;8.63;;
29712;SDS011;16623;53.632;10.016;2023-04-05T05:41:51;18.33;;;8.98;;
29712;SDS011;16623;53.632;10.016;2023-04-05T05:44:17;16.80;;;7.93;;
29712;SDS011;16623;53.632;10.016;2023-04-05T05:46:42;16.25;;;9.55;;
29712;SDS011;16623;53.632;10.016;2023-04-05T05:49:08;16.33;;;7.57;;
29712;SDS011;16623;53.632;10.016;2023-04-05T05:51:33;18.05;;;10.73;;
29712;SDS011;16623;53.632;10.016;2023-04-05T05:53:59;26.27;;;9.32;;
29712;SDS011;16623;53.632;10.016;2023-04-05T05:56:25;22.33;;;8.77;;
29712;SDS011;16623;53.632;10.016;2023-04-05T05:58:51;17.98;;;8.98;;
29712;SDS011;16623;53.632;10.016;2023-04-05T06:01:17;18.48;;;9.25;;
29712;SDS011;16623;53.632;10.016;2023-04-05T06:03:46;12.95;;;7.70;;
29712;SDS011;16623;53.632;10.016;2023-04-05T06:06:12;16.38;;;7.40;;
29712;SDS011;16623;53.632;10.016;2023-04-05T06:08:38;12.07;;;6.95;;
29712;SDS011;16623;53.632;10.016;2023-04-05T06:11:03;14.88;;;6.93;;
29712;SDS011;16623;53.632;10.016;2023-04-05T06:13:29;15.13;;;6.47;;
29712;SDS011;16623;53.632;10.016;2023-04-05T06:15:55;13.10;;;7.22;;
29712;SDS011;16623;53.632;10.016;2023-04-05T06:18:20;14.07;;;7.55;;
29712;SDS011;16623;53.632;10.016;2023-04-05T06:20:46;16.58;;;7.43;;
29712;SDS011;16623;53.632;10.016;2023-04-05T06:23:12;15.18;;;6.30;;
29712;SDS011;16623;53.632;10.016;2023-04-05T06:25:38;15.02;;;7.18;;
29712;SDS011;16623;53.632;10.016;2023-04-05T06:28:04;15.95;;;6.75;;
29712;SDS011;16623;53.632;10.016;2023-04-05T06:30:31;10.70;;;5.93;;
29712;SDS011;16623;53.632;10.016;2023-04-05T06:32:57;9.57;;;5.45;;
29712;SDS011;16623;53.632;10.016;2023-04-05T06:35:24;15.05;;;6.68;;
29712;SDS011;16623;53.632;10.016;2023-04-05T06:37:50;13.57;;;6.40;;
29712;SDS011;16623;53.632;10.016;2023-04-05T06:40:16;11.45;;;6.10;;
29712;SDS011;16623;53.632;10.016;2023-04-05T06:42:42;11.32;;;4.63;;
29712;SDS011;16623;53.632;10.016;2023-04-05T06:45:08;14.55;;;5.82;;
29712;SDS011;16623;53.632;10.016;2023-04-05T06:47:34;9.88;;;4.85;;
29712;SDS011;16623;53.632;10.016;2023-04-05T06:50:00;10.73;;;5.00;;
29712;SDS011;16623;53.632;10.016;2023-04-05T06:52:26;20.95;;;6.00;;
29712;SDS011;16623;53.632;10.016;2023-04-05T06:54:52;14.40;;;5.35;;
29712;SDS011;16623;53.632;10.016;2023-04-05T06:57:18;9.38;;;4.28;;
29712;SDS011;16623;53.632;10.016;2023-04-05T06:59:43;10.02;;;5.18;;
29712;SDS011;16623;53.632;10.016;2023-04-05T07:02:09;12.68;;;5.32;;
29712;SDS011;16623;53.632;10.016;2023-04-05T07:04:36;10.32;;;4.57;;
29712;SDS011;16623;53.632;10.016;2023-04-05T07:07:02;9.13;;;4.35;;
29712;SDS011;16623;53.632;10.016;2023-04-05T07:09:29;9.02;;;4.75;;
29712;SDS011;16623;53.632;10.016;2023-04-05T07:11:56;8.95;;;4.63;;
29712;SDS011;16623;53.632;10.016;2023-04-05T07:14:22;10.70;;;4.63;;
29712;SDS011;16623;53.632;10.016;2023-04-05T07:16:48;10.30;;;4.20;;
29712;SDS011;16623;53.632;10.016;2023-04-05T07:19:15;10.73;;;4.80;;
29712;SDS011;16623;53.632;10.016;2023-04-05T07:21:41;10.45;;;3.88;;
29712;SDS011;16623;53.632;10.016;2023-04-05T07:24:07;10.68;;;3.85;;
29712;SDS011;16623;53.632;10.016;2023-04-05T07:26:32;7.43;;;4.05;;
29712;SDS011;16623;53.632;10.016;2023-04-05T07:29:02;13.02;;;3.97;;
29712;SDS011;16623;53.632;10.016;2023-04-05T07:31:28;10.30;;;4.40;;
29712;SDS011;16623;53.632;10.016;2023-04-05T07:33:55;8.13;;;3.63;;
29712;SDS011;16623;53.632;10.016;2023-04-05T07:36:22;6.80;;;3.70;;
29712;SDS011;16623;53.632;10.016;2023-04-05T07:38:47;9.60;;;3.47;;
29712;SDS011;16623;53.632;10.016;2023-04-05T07:41:13;8.55;;;4.25;;
29712;SDS011;16623;53.632;10.016;2023-04-05T07:43:40;5.63;;;3.65;;
29712;SDS011;16623;53.632;10.016;2023-04-05T07:46:06;10.48;;;3.53;;
29712;SDS011;16623;53.632;10.016;2023-04-05T07:48:31;4.78;;;3.10;;
29712;SDS011;16623;53.632;10.016;2023-04-05T07:51:06;9.23;;;4.28;;
29712;SDS011;16623;53.632;10.016;2023-04-05T07:53:34;8.27;;;4.63;;
29712;SDS011;16623;53.632;10.016;2023-04-05T07:56:07;6.95;;;3.88;;
29712;SDS011;16623;53.632;10.016;2023-04-05T07:58:34;6.95;;;3.33;;
29712;SDS011;16623;53.632;10.016;2023-04-05T08:01:00;8.55;;;3.60;;
29712;SDS011;16623;53.632;10.016;2023-04-05T08:03:27;15.75;;;4.30;;
29712;SDS011;16623;53.632;10.016;2023-04-05T08:05:54;7.85;;;3.80;;
29712;SDS011;16623;53.632;10.016;2023-04-05T08:08:20;10.52;;;4.40;;
29712;SDS011;16623;53.632;10.016;2023-04-05T08:10:46;12.98;;;4.57;;
29712;SDS011;16623;53.632;10.016;2023-04-05T08:13:11;7.30;;;3.40;;
29712;SDS011;16623;53.632;10.016;2023-04-05T08:15:37;11.23;;;3.95;;
29712;SDS011;16623;53.632;10.016;2023-04-05T08:18:03;8.35;;;3.92;;
29712;SDS011;16623;53.632;10.016;2023-04-05T08:20:29;6.70;;;3.92;;
29712;SDS011;16623;53.632;10.016;2023-04-05T08:22:54;6.55;;;3.80;;
29712;SDS011;16623;53.632;10.016;2023-04-05T08:25:20;9.98;;;4.22;;
29712;SDS011;16623;53.632;10.016;2023-04-05T08:27:46;6.50;;;4.50;;
29712;SDS011;16623;53.632;10.016;2023-04-05T08:30:11;9.25;;;3.97;;
29712;SDS011;16623;53.632;10.016;2023-04-05T08:32:37;12.82;;;6.20;;
29712;SDS011;16623;53.632;10.016;2023-04-05T08:35:03;9.52;;;4.13;;
29712;SDS011;16623;53.632;10.016;2023-04-05T08:37:32;7.55;;;4.70;;
29712;SDS011;16623;53.632;10.016;2023-04-05T08:40:01;8.90;;;4.18;;
29712;SDS011;16623;53.632;10.016;2023-04-05T08:42:28;7.50;;;4.13;;
29712;SDS011;16623;53.632;10.016;2023-04-05T08:45:02;11.02;;;4.05;;
29712;SDS011;16623;53.632;10.016;2023-04-05T08:47:33;6.20;;;3.75;;
29712;SDS011;16623;53.632;10.016;2023-04-05T08:50:03;8.35;;;5.28;;
29712;SDS011;16623;53.632;10.016;2023-04-05T08:52:30;5.72;;;3.88;;
29712;SDS011;16623;53.632;10.016;2023-04-05T08:54:57;8.43;;;3.38;;
29712;SDS011;16623;53.632;10.016;2023-04-05T08:57:25;10.02;;;3.58;;
29712;SDS011;16623;53.632;10.016;2023-04-05T08:59:55;8.82;;;4.40;;
29712;SDS011;16623;53.632;10.016;2023-04-05T09:02:22;7.50;;;3.95;;
29712;SDS011;16623;53.632;10.016;2023-04-05T09:04:49;8.23;;;3.90;;
29712;SDS011;16623;53.632;10.016;2023-04-05T09:07:16;8.50;;;4.20;;
29712;SDS011;16623;53.632;10.016;2023-04-05T09:09:48;9.50;;;4.03;;
29712;SDS011;16623;53.632;10.016;2023-04-05T09:12:20;9.52;;;3.80;;
29712;SDS011;16623;53.632;10.016;2023-04-05T09:14:47;8.02;;;3.85;;
29712;SDS011;16623;53.632;10.016;2023-04-05T09:17:16;8.52;;;3.80;;
29712;SDS011;16623;53.632;10.016;2023-04-05T09:19:43;9.27;;;4.38;;
29712;SDS011;16623;53.632;10.016;2023-04-05T09:22:09;9.02;;;4.05;;
29712;SDS011;16623;53.632;10.016;2023-04-05T09:24:36;6.32;;;3.25;;
29712;SDS011;16623;53.632;10.016;2023-04-05T09:27:16;6.93;;;3.30;;
29712;SDS011;16623;53.632;10.016;2023-04-05T09:29:44;6.78;;;3.95;;
29712;SDS011;16623;53.632;10.016;2023-04-05T09:32:12;11.55;;;3.95;;
29712;SDS011;16623;53.632;10.016;2023-04-05T09:34:39;9.00;;;4.03;;
29712;SDS011;16623;53.632;10.016;2023-04-05T09:37:19;5.97;;;3.50;;
29712;SDS011;16623;53.632;10.016;2023-04-05T09:39:50;7.30;;;4.40;;
29712;SDS011;16623;53.632;10.016;2023-04-05T09:42:26;6.10;;;3.30;;
29712;SDS011;16623;53.632;10.016;2023-04-05T09:44:58;11.35;;;4.00;;
29712;SDS011;16623;53.632;10.016;2023-04-05T09:47:27;6.32;;;3.92;;
29712;SDS011;16623;53.632;10.016;2023-04-05T09:50:02;12.23;;;3.67;;
29712;SDS011;16623;53.632;10.016;2023-04-05T09:52:41;5.80;;;3.72;;
29712;SDS011;16623;53.632;10.016;2023-04-05T09:55:08;11.18;;;3.92;;
29712;SDS011;16623;53.632;10.016;2023-04-05T09:57:37;5.72;;;3.78;;
29712;SDS011;16623;53.632;10.016;2023-04-05T10:00:05;6.25;;;4.10;;
29712;SDS011;16623;53.632;10.016;2023-04-05T10:02:47;5.97;;;3.10;;
29712;SDS011;16623;53.632;10.016;2023-04-05T10:05:17;9.80;;;4.57;;
29712;SDS011;16623;53.632;10.016;2023-04-05T10:07:43;8.30;;;3.83;;
29712;SDS011;16623;53.632;10.016;2023-04-05T10:10:09;6.30;;;3.60;;
29712;SDS011;16623;53.632;10.016;2023-04-05T10:12:39;8.27;;;3.85;;
29712;SDS011;16623;53.632;10.016;2023-04-05T10:15:06;7.38;;;3.42;;
29712;SDS011;16623;53.632;10.016;2023-04-05T10:17:52;6.45;;;3.67;;
29712;SDS011;16623;53.632;10.016;2023-04-05T10:20:24;7.15;;;3.60;;
29712;SDS011;16623;53.632;10.016;2023-04-05T10:25:45;8.38;;;3.38;;
29712;SDS011;16623;53.632;10.016;2023-04-05T10:28:31;6.07;;;3.40;;
29712;SDS011;16623;53.632;10.016;2023-04-05T10:33:43;12.30;;;4.22;;
29712;SDS011;16623;53.632;10.016;2023-04-05T10:36:21;7.70;;;3.92;;
29712;SDS011;16623;53.632;10.016;2023-04-05T10:39:27;7.70;;;4.05;;
29712;SDS011;16623;53.632;10.016;2023-04-05T10:42:10;8.88;;;4.20;;
29712;SDS011;16623;53.632;10.016;2023-04-05T10:44:45;10.05;;;4.05;;
29712;SDS011;16623;53.632;10.016;2023-04-05T10:47:15;13.27;;;4.07;;
29712;SDS011;16623;53.632;10.016;2023-04-05T10:49:45;8.45;;;3.38;;
29712;SDS011;16623;53.632;10.016;2023-04-05T10:52:14;9.27;;;4.30;;
29712;SDS011;16623;53.632;10.016;2023-04-05T10:54:41;6.78;;;3.75;;
29712;SDS011;16623;53.632;10.016;2023-04-05T10:57:07;9.40;;;4.00;;
29712;SDS011;16623;53.632;10.016;2023-04-05T10:59:39;8.88;;;4.68;;
29712;SDS011;16623;53.632;10.016;2023-04-05T11:02:06;7.45;;;3.78;;
29712;SDS011;16623;53.632;10.016;2023-04-05T11:04:33;7.80;;;3.95;;
29712;SDS011;16623;53.632;10.016;2023-04-05T11:07:17;8.43;;;3.53;;
29712;SDS011;16623;53.632;10.016;2023-04-05T11:09:54;7.35;;;4.05;;
29712;SDS011;16623;53.632;10.016;2023-04-05T11:15:27;6.40;;;3.17;;
29712;SDS011;16623;53.632;10.016;2023-04-05T11:20:54;4.60;;;3.22;;
29712;SDS011;16623;53.632;10.016;2023-04-05T11:23:30;7.07;;;3.45;;
29712;SDS011;16623;53.632;10.016;2023-04-05T11:28:58;4.43;;;3.15;;
29712;SDS011;16623;53.632;10.016;2023-04-05T11:31:24;7.80;;;3.42;;
29712;SDS011;16623;53.632;10.016;2023-04-05T11:33:54;6.85;;;3.22;;
29712;SDS011;16623;53.632;10.016;2023-04-05T11:39:21;4.80;;;3.05;;
29712;SDS011;16623;53.632;10.016;2023-04-05T11:41:55;8.20;;;4.82;;
29712;SDS011;16623;53.632;10.016;2023-04-05T11:44:21;4.30;;;3.10;;
29712;SDS011;16623;53.632;10.016;2023-04-05T11:46:51;4.43;;;2.70;;
29712;SDS011;16623;53.632;10.016;2023-04-05T11:49:18;6.03;;;3.45;;
29712;SDS011;16623;53.632;10.016;2023-04-05T11:51:47;8.38;;;3.20;;
29712;SDS011;16623;53.632;10.016;2023-04-05T11:54:14;6.53;;;2.70;;
29712;SDS011;16623;53.632;10.016;2023-04-05T11:56:52;3.40;;;2.03;;
29712;SDS011;16623;53.632;10.016;2023-04-05T11:59:18;3.60;;;2.28;;
29712;SDS011;16623;53.632;10.016;2023-04-05T12:01:44;5.95;;;2.67;;
29712;SDS011;16623;53.632;10.016;2023-04-05T12:04:12;5.40;;;2.75;;
29712;SDS011;16623;53.632;10.016;2023-04-05T12:06:38;5.75;;;2.72;;
29712;SDS011;16623;53.632;10.016;2023-04-05T12:09:05;7.00;;;2.85;;
29712;SDS011;16623;53.632;10.016;2023-04-05T12:11:31;4.82;;;3.13;;
29712;SDS011;16623;53.632;10.016;2023-04-05T12:13:59;8.70;;;3.40;;
29712;SDS011;16623;53.632;10.016;2023-04-05T12:16:26;7.90;;;3.42;;
29712;SDS011;16623;53.632;10.016;2023-04-05T12:18:53;8.02;;;3.35;;
29712;SDS011;16623;53.632;10.016;2023-04-05T12:21:20;6.47;;;3.22;;
29712;SDS011;16623;53.632;10.016;2023-04-05T12:23:46;6.22;;;3.17;;
29712;SDS011;16623;53.632;10.016;2023-04-05T12:26:12;11.68;;;3.50;;
29712;SDS011;16623;53.632;10.016;2023-04-05T12:28:52;8.18;;;3.33;;
29712;SDS011;16623;53.632;10.016;2023-04-05T12:31:38;7.55;;;2.95;;
29712;SDS011;16623;53.632;10.016;2023-04-05T12:34:08;6.53;;;3.58;;
29712;SDS011;16623;53.632;10.016;2023-04-05T12:36:35;8.07;;;3.22;;
29712;SDS011;16623;53.632;10.016;2023-04-05T12:39:04;5.82;;;3.83;;
29712;SDS011;16623;53.632;10.016;2023-04-05T12:41:32;6.95;;;3.15;;
29712;SDS011;16623;53.632;10.016;2023-04-05T12:43:58;6.40;;;4.45;;
29712;SDS011;16623;53.632;10.016;2023-04-05T12:46:39;4.25;;;2.78;;
29712;SDS011;16623;53.632;10.016;2023-04-05T12:49:09;4.28;;;3.05;;
29712;SDS011;16623;53.632;10.016;2023-04-05T12:51:36;4.40;;;2.80;;
29712;SDS011;16623;53.632;10.016;2023-04-05T12:54:21;10.73;;;3.75;;
29712;SDS011;16623;53.632;10.016;2023-04-05T12:56:51;9.65;;;3.17;;
29712;SDS011;16623;53.632;10.016;2023-04-05T12:59:21;3.97;;;3.10;;
29712;SDS011;16623;53.632;10.016;2023-04-05T13:01:47;5.03;;;3.10;;
29712;SDS011;16623;53.632;10.016;2023-04-05T13:04:13;6.90;;;2.92;;
29712;SDS011;16623;53.632;10.016;2023-04-05T13:06:39;4.45;;;2.80;;
29712;SDS011;16623;53.632;10.016;2023-04-05T13:09:04;5.80;;;3.17;;
29712;SDS011;16623;53.632;10.016;2023-04-05T13:11:30;7.47;;;4.20;;
29712;SDS011;16623;53.632;10.016;2023-04-05T13:13:56;5.03;;;3.28;;
29712;SDS011;16623;53.632;10.016;2023-04-05T13:16:22;7.55;;;2.42;;
29712;SDS011;16623;53.632;10.016;2023-04-05T13:18:47;4.15;;;2.75;;
29712;SDS011;16623;53.632;10.016;2023-04-05T13:21:15;3.30;;;2.55;;
29712;SDS011;16623;53.632;10.016;2023-04-05T13:23:42;5.38;;;2.67;;
29712;SDS011;16623;53.632;10.016;2023-04-05T13:26:08;3.75;;;2.60;;
29712;SDS011;16623;53.632;10.016;2023-04-05T13:28:34;5.93;;;2.38;;
29712;SDS011;16623;53.632;10.016;2023-04-05T13:30:59;4.75;;;2.72;;
29712;SDS011;16623;53.632;10.016;2023-04-05T13:33:26;7.68;;;3.38;;
29712;SDS011;16623;53.632;10.016;2023-04-05T13:35:52;4.05;;;2.40;;
29712;SDS011;16623;53.632;10.016;2023-04-05T13:38:18;4.55;;;2.20;;
29712;SDS011;16623;53.632;10.016;2023-04-05T13:40:43;6.18;;;2.40;;
29712;SDS011;16623;53.632;10.016;2023-04-05T13:43:09;4.47;;;2.30;;
29712;SDS011;16623;53.632;10.016;2023-04-05T13:45:34;7.82;;;2.70;;
29712;SDS011;16623;53.632;10.016;2023-04-05T13:48:01;4.43;;;2.50;;
29712;SDS011;16623;53.632;10.016;2023-04-05T13:50:27;8.50;;;3.10;;
29712;SDS011;16623;53.632;10.016;2023-04-05T13:52:52;5.07;;;3.13;;
29712;SDS011;16623;53.632;10.016;2023-04-05T13:55:18;12.13;;;3.67;;
29712;SDS011;16623;53.632;10.016;2023-04-05T13:57:44;6.00;;;3.53;;
29712;SDS011;16623;53.632;10.016;2023-04-05T14:00:10;6.55;;;3.47;;
29712;SDS011;16623;53.632;10.016;2023-04-05T14:02:38;6.35;;;3.15;;
29712;SDS011;16623;53.632;10.016;2023-04-05T14:05:04;7.68;;;3.78;;
29712;SDS011;16623;53.632;10.016;2023-04-05T14:07:31;6.63;;;3.33;;
29712;SDS011;16623;53.632;10.016;2023-04-05T14:09:57;5.18;;;3.25;;
29712;SDS011;16623;53.632;10.016;2023-04-05T14:12:23;10.27;;;3.13;;
29712;SDS011;16623;53.632;10.016;2023-04-05T14:14:49;8.00;;;3.35;;
29712;SDS011;16623;53.632;10.016;2023-04-05T14:17:17;6.20;;;3.40;;
29712;SDS011;16623;53.632;10.016;2023-04-05T14:19:43;7.03;;;3.20;;
29712;SDS011;16623;53.632;10.016;2023-04-05T14:22:08;5.50;;;3.30;;
29712;SDS011;16623;53.632;10.016;2023-04-05T14:24:34;5.47;;;3.08;;
29712;SDS011;16623;53.632;10.016;2023-04-05T14:26:59;12.88;;;3.65;;
29712;SDS011;16623;53.632;10.016;2023-04-05T14:29:26;5.38;;;2.95;;
29712;SDS011;16623;53.632;10.016;2023-04-05T14:31:53;7.45;;;3.00;;
29712;SDS011;16623;53.632;10.016;2023-04-05T14:34:20;11.48;;;3.92;;
29712;SDS011;16623;53.632;10.016;2023-04-05T14:36:46;6.55;;;3.10;;
29712;SDS011;16623;53.632;10.016;2023-04-05T14:39:12;6.25;;;3.78;;
29712;SDS011;16623;53.632;10.016;2023-04-05T14:41:37;5.05;;;3.05;;
29712;SDS011;16623;53.632;10.016;2023-04-05T14:44:03;7.18;;;3.13;;
29712;SDS011;16623;53.632;10.016;2023-04-05T14:46:29;5.55;;;3.08;;
29712;SDS011;16623;53.632;10.016;2023-04-05T14:48:54;5.28;;;2.60;;
29712;SDS011;16623;53.632;10.016;2023-04-05T14:51:20;5.38;;;3.17;;
29712;SDS011;16623;53.632;10.016;2023-04-05T14:53:46;5.95;;;3.15;;
29712;SDS011;16623;53.632;10.016;2023-04-05T14:56:11;6.72;;;2.97;;
29712;SDS011;16623;53.632;10.016;2023-04-05T14:58:37;6.68;;;3.28;;
29712;SDS011;16623;53.632;10.016;2023-04-05T15:01:02;8.65;;;2.97;;